Maltersville, Indiana
Current Conditions -  °F | °C
As of 6:15 AM on Sunday 21 Dec 2014 (Local Time) from KHNB Reporting Station
Clear Clear  
Wind Chill: 17°   Ceiling: Unl
Heat Index: 23°   Visibility: 5mi
Dew Point: 19°   Wind: 5mph
Humidity: 86%   Direction: 80°E
Pressure: 30.29"   Gusts: NA
Location:  38.3038°N, 86.9615°W
Report Text: KHNB 211215Z AUTO 08004KT 5SM CLR M05/M07 A3029 RMK AO1
Loading
Personal Weather Stations






























Interactive Weather Map New forecast layout! Learn more

10-Day Weather Forecast

Advertisements
Track Severe Weather on mobile